Time;durP1;ratioP1;P1;durP2;ratioP2;P2;SDS_P1;SDS_P2;PMS_P1;PMS_P2;Temp;Humidity;BMP_temperature;BMP_pressure;BME280_temperature;BME280_humidity;BME280_pressure;Samples;Min_cycle;Max_cycle;Signal;HPM_P1;HPM_P2
2021/07/11 00:00:25;;;;;;;3.92;1.75;;;23.00;96.70;;;;;;5065429;28;20044;-72
2021/07/11 00:02:54;;;;;;;2.25;1.58;;;23.00;96.70;;;;;;5063923;28;20517;-71
2021/07/11 00:05:23;;;;;;;4.20;1.85;;;23.00;96.70;;;;;;5061531;28;20114;-71
2021/07/11 00:07:53;;;;;;;2.90;1.70;;;23.00;96.70;;;;;;5062692;28;20241;-71
2021/07/11 00:10:23;;;;;;;8.68;1.83;;;23.00;96.70;;;;;;5046259;28;20177;-71
2021/07/11 00:12:52;;;;;;;4.70;1.73;;;22.90;96.70;;;;;;5062129;28;20048;-71
2021/07/11 00:15:23;;;;;;;3.55;2.17;;;23.00;96.70;;;;;;5058137;28;20573;-72
2021/07/11 00:17:53;;;;;;;4.28;1.80;;;22.90;96.70;;;;;;5041725;28;20037;-72
2021/07/11 00:20:22;;;;;;;5.32;1.80;;;22.90;96.70;;;;;;5059717;28;20044;-72
2021/07/11 00:22:53;;;;;;;4.05;1.80;;;22.90;96.70;;;;;;5045468;28;20446;-73
2021/07/11 00:25:23;;;;;;;4.97;1.73;;;22.90;96.70;;;;;;5044893;28;20053;-74
2021/07/11 00:27:53;;;;;;;3.45;1.67;;;22.80;96.70;;;;;;5034537;28;20041;-74
2021/07/11 00:30:22;;;;;;;5.80;1.67;;;22.80;96.70;;;;;;5063505;28;20088;-74
2021/07/11 00:32:50;;;;;;;4.60;1.98;;;22.80;96.70;;;;;;5064510;28;20401;-73
2021/07/11 00:35:19;;;;;;;3.47;1.85;;;22.90;96.70;;;;;;5063254;28;20496;-75
2021/07/11 00:37:48;;;;;;;4.03;1.67;;;22.80;96.70;;;;;;5065327;28;20446;-75
2021/07/11 00:40:19;;;;;;;3.17;2.03;;;22.70;96.70;;;;;;5059530;28;20460;-75
2021/07/11 00:42:48;;;;;;;2.30;1.83;;;22.80;96.70;;;;;;5045642;28;20036;-75
2021/07/11 00:45:19;;;;;;;4.47;1.88;;;22.90;96.70;;;;;;5047797;28;20072;-75
2021/07/11 00:47:50;;;;;;;4.35;1.83;;;22.80;96.70;;;;;;5046321;28;20072;-75
2021/07/11 00:50:19;;;;;;;5.20;1.63;;;22.70;96.70;;;;;;5062660;28;20116;-75
2021/07/11 00:53:07;;;;;;;4.93;1.80;;;22.70;96.70;;;;;;5046719;28;20082;-75
2021/07/11 00:55:39;;;;;;;6.15;2.22;;;22.80;96.70;;;;;;5043258;28;20402;-74
2021/07/11 00:58:09;;;;;;;4.32;1.80;;;22.80;96.70;;;;;;5046213;28;20044;-74
2021/07/11 01:00:51;;;;;;;3.63;1.77;;;22.70;96.70;;;;;;5044087;28;20047;-74
2021/07/11 01:03:26;;;;;;;3.80;1.95;;;22.70;96.70;;;;;;5046542;28;20144;-73
2021/07/11 01:05:56;;;;;;;3.95;1.73;;;22.70;96.70;;;;;;5057161;28;20033;-73
2021/07/11 01:08:36;;;;;;;4.93;1.90;;;22.90;96.70;;;;;;5048716;28;20064;-73
2021/07/11 01:11:09;;;;;;;6.22;1.92;;;23.00;96.70;;;;;;5048816;28;20143;-73
2021/07/11 01:13:41;;;;;;;4.45;1.65;;;22.90;96.70;;;;;;5060125;28;20029;-74
2021/07/11 01:16:15;;;;;;;3.17;1.55;;;22.80;96.70;;;;;;5037780;28;20061;-73
2021/07/11 01:18:48;;;;;;;4.43;1.70;;;22.80;96.70;;;;;;5045944;28;20816;-74
2021/07/11 01:21:19;;;;;;;2.40;1.60;;;22.70;96.70;;;;;;5049655;28;20048;-73
2021/07/11 01:24:10;;;;;;;4.07;1.30;;;22.70;96.70;;;;;;5064655;28;20055;-73
2021/07/11 01:26:45;;;;;;;3.15;1.42;;;22.80;96.70;;;;;;5026477;28;20131;-73
2021/07/11 01:29:17;;;;;;;2.20;1.40;;;22.80;96.70;;;;;;5044002;28;20515;-73
2021/07/11 01:31:49;;;;;;;5.07;1.45;;;22.80;96.70;;;;;;5064204;28;20082;-74
2021/07/11 01:34:18;;;;;;;3.13;1.20;;;22.70;96.70;;;;;;5045917;28;20053;-73
2021/07/11 01:36:46;;;;;;;3.40;1.67;;;22.70;96.70;;;;;;5062832;28;20035;-73
2021/07/11 01:39:19;;;;;;;3.90;1.63;;;22.60;96.70;;;;;;5065411;28;20040;-73
2021/07/11 01:41:50;;;;;;;4.53;1.75;;;22.60;96.70;;;;;;5064049;28;20044;-73
2021/07/11 01:44:20;;;;;;;3.13;1.50;;;22.60;96.70;;;;;;5064534;28;20048;-73
2021/07/11 01:46:49;;;;;;;2.88;1.20;;;22.70;96.70;;;;;;5063476;28;20470;-73
2021/07/11 01:49:19;;;;;;;2.88;1.40;;;22.60;96.70;;;;;;5062949;28;20544;-73
2021/07/11 01:51:52;;;;;;;4.30;1.60;;;22.60;96.70;;;;;;5057410;28;20033;-74
2021/07/11 01:54:27;;;;;;;3.17;1.35;;;22.50;96.70;;;;;;5045932;28;20047;-73
2021/07/11 01:56:59;;;;;;;3.38;1.50;;;22.50;96.70;;;;;;5045454;28;20071;-73
2021/07/11 01:59:38;;;;;;;3.40;1.67;;;22.40;96.70;;;;;;5030253;28;20053;-73
2021/07/11 02:02:42;;;;;;;3.85;1.50;;;22.40;96.70;;;;;;5054309;28;20520;-73
2021/07/11 02:05:30;;;;;;;4.22;1.33;;;22.40;96.70;;;;;;5063136;28;20086;-74
2021/07/11 02:08:07;;;;;;;2.95;1.45;;;22.40;96.70;;;;;;5062482;28;20535;-73
2021/07/11 02:10:38;;;;;;;2.78;1.48;;;22.40;96.70;;;;;;5047481;28;20133;-73
2021/07/11 02:13:26;;;;;;;4.78;1.63;;;22.40;96.70;;;;;;5047283;28;20053;-73
2021/07/11 02:16:06;;;;;;;2.25;1.23;;;22.40;96.70;;;;;;5027345;28;20056;-73
2021/07/11 02:18:39;;;;;;;3.50;1.60;;;22.30;96.70;;;;;;5024566;28;20090;-71
2021/07/11 02:21:18;;;;;;;4.78;1.50;;;22.30;96.70;;;;;;5041672;28;20049;-72
2021/07/11 02:23:48;;;;;;;3.85;1.48;;;22.20;96.70;;;;;;5044057;28;20383;-72
2021/07/11 02:26:17;;;;;;;5.05;1.98;;;22.10;96.70;;;;;;5053394;28;20102;-72
2021/07/11 02:28:49;;;;;;;3.42;1.63;;;22.10;96.70;;;;;;5061399;28;20037;-72
2021/07/11 02:31:18;;;;;;;5.10;1.50;;;22.10;96.70;;;;;;5039165;28;20047;-73
2021/07/11 02:33:48;;;;;;;4.45;1.38;;;22.10;96.70;;;;;;5047137;28;20431;-72
2021/07/11 02:36:21;;;;;;;4.07;1.80;;;22.10;96.70;;;;;;5039489;28;20056;-72
2021/07/11 02:38:55;;;;;;;2.83;1.30;;;22.10;96.70;;;;;;5046736;28;20511;-72
2021/07/11 02:41:28;;;;;;;4.25;1.98;;;22.20;96.70;;;;;;5060139;28;20513;-72
2021/07/11 02:44:05;;;;;;;2.60;1.63;;;22.10;96.70;;;;;;5042124;28;20082;-72
2021/07/11 02:46:37;;;;;;;4.72;1.98;;;22.10;96.70;;;;;;5045653;28;20142;-72
2021/07/11 02:49:09;;;;;;;4.43;1.90;;;22.00;96.70;;;;;;5040027;28;20043;-72
2021/07/11 02:51:41;;;;;;;4.28;1.80;;;22.00;96.70;;;;;;5045940;28;20817;-72
2021/07/11 02:54:16;;;;;;;4.72;1.92;;;21.90;96.70;;;;;;5041302;28;20048;-72
2021/07/11 02:56:50;;;;;;;2.53;1.58;;;22.00;96.70;;;;;;5059605;28;20456;-72
2021/07/11 02:59:21;;;;;;;2.90;1.80;;;22.00;96.70;;;;;;5040834;28;20040;-72
2021/07/11 03:01:52;;;;;;;2.65;1.70;;;22.00;96.70;;;;;;5063540;28;20485;-72
2021/07/11 03:04:26;;;;;;;6.65;2.10;;;22.00;96.70;;;;;;5045092;28;20652;-72
2021/07/11 03:06:55;;;;;;;4.35;2.42;;;21.90;96.70;;;;;;5022557;28;20053;-72
2021/07/11 03:09:25;;;;;;;3.45;2.03;;;21.60;96.70;;;;;;5045220;28;20044;-72
2021/07/11 03:11:55;;;;;;;2.45;2.00;;;21.60;96.70;;;;;;5044485;28;20064;-71
2021/07/11 03:14:27;;;;;;;4.80;1.98;;;21.70;96.70;;;;;;5059777;28;20364;-72
2021/07/11 03:16:56;;;;;;;5.90;2.03;;;21.70;96.70;;;;;;5037897;28;20044;-72
2021/07/11 03:19:29;;;;;;;3.53;1.77;;;21.60;96.70;;;;;;5062876;28;20024;-72
2021/07/11 03:22:02;;;;;;;3.47;1.90;;;21.60;96.70;;;;;;5043132;28;20044;-71
2021/07/11 03:24:31;;;;;;;3.38;1.35;;;21.50;96.70;;;;;;5039263;28;20095;-72
2021/07/11 03:27:04;;;;;;;2.88;1.48;;;21.60;96.70;;;;;;5063259;28;20068;-72
2021/07/11 03:29:38;;;;;;;3.60;1.90;;;21.60;96.70;;;;;;5061157;28;20044;-71
2021/07/11 03:32:09;;;;;;;4.50;1.73;;;21.70;96.70;;;;;;5044071;28;20133;-72
2021/07/11 03:34:39;;;;;;;3.72;1.65;;;21.70;96.70;;;;;;5062686;28;20064;-71
2021/07/11 03:37:17;;;;;;;2.60;1.63;;;21.70;96.70;;;;;;5047346;28;20048;-72
2021/07/11 03:39:49;;;;;;;4.60;1.98;;;21.60;96.70;;;;;;5037949;28;20159;-71
2021/07/11 03:42:25;;;;;;;7.07;1.88;;;21.60;96.70;;;;;;5027678;28;20055;-72
2021/07/11 03:44:59;;;;;;;4.25;2.00;;;21.60;96.70;;;;;;5064523;28;20126;-71
2021/07/11 03:47:34;;;;;;;4.97;2.38;;;21.60;96.70;;;;;;5061403;28;20044;-72
2021/07/11 03:50:05;;;;;;;6.47;2.25;;;21.50;96.70;;;;;;5060915;28;20036;-71
2021/07/11 03:52:42;;;;;;;5.03;2.35;;;21.30;96.70;;;;;;5059967;28;20041;-71
2021/07/11 03:55:11;;;;;;;6.80;1.77;;;21.30;96.70;;;;;;5045196;28;20044;-71
2021/07/11 03:57:42;;;;;;;5.13;1.80;;;21.30;96.70;;;;;;5062333;28;20072;-72
2021/07/11 04:00:15;;;;;;;3.25;1.67;;;21.40;96.70;;;;;;5059282;28;20499;-72
2021/07/11 04:02:48;;;;;;;4.00;1.73;;;21.30;96.70;;;;;;5062400;28;20044;-72
2021/07/11 04:05:20;;;;;;;4.13;2.00;;;21.30;96.70;;;;;;5053232;28;20049;-72
2021/07/11 04:07:51;;;;;;;3.75;2.15;;;21.40;96.70;;;;;;5061450;28;20125;-72
2021/07/11 04:10:22;;;;;;;5.35;1.80;;;21.30;96.70;;;;;;5042129;28;20044;-72
2021/07/11 04:12:50;;;;;;;2.80;1.77;;;21.20;96.70;;;;;;5056358;28;20037;-71
2021/07/11 04:15:21;;;;;;;5.15;1.77;;;21.20;96.70;;;;;;5037784;28;20067;-71
2021/07/11 04:17:52;;;;;;;4.25;2.03;;;21.10;96.70;;;;;;5039452;28;20090;-71
2021/07/11 04:20:22;;;;;;;2.53;1.70;;;21.00;96.70;;;;;;5038853;28;20196;-71
2021/07/11 04:22:58;;;;;;;4.97;1.63;;;21.00;96.70;;;;;;5022023;28;20053;-72
2021/07/11 04:25:29;;;;;;;3.13;1.52;;;21.10;96.70;;;;;;5051912;28;20033;-71
2021/07/11 04:27:59;;;;;;;3.20;1.77;;;21.20;96.70;;;;;;5061621;28;20333;-71
2021/07/11 04:30:30;;;;;;;5.00;1.63;;;21.20;96.70;;;;;;5053821;28;20337;-72
2021/07/11 04:32:58;;;;;;;3.40;1.50;;;21.30;96.70;;;;;;5059444;28;20048;-72
2021/07/11 04:35:27;;;;;;;5.82;1.50;;;21.30;96.70;;;;;;5039835;28;20141;-72
2021/07/11 04:37:55;;;;;;;4.53;1.40;;;21.40;96.70;;;;;;5061563;28;20363;-72
2021/07/11 04:40:23;;;;;;;2.88;1.35;;;21.50;96.70;;;;;;5060750;28;20400;-71
2021/07/11 04:42:51;;;;;;;4.03;1.70;;;21.50;96.70;;;;;;5037668;28;20151;-72
2021/07/11 04:45:20;;;;;;;3.00;1.60;;;21.50;96.70;;;;;;5061119;28;20573;-71
2021/07/11 04:47:49;;;;;;;2.72;1.67;;;21.60;96.70;;;;;;5065187;28;20040;-71
2021/07/11 04:50:18;;;;;;;2.92;1.60;;;21.70;96.70;;;;;;5044760;28;20083;-72
2021/07/11 04:52:46;;;;;;;2.00;1.77;;;21.70;96.70;;;;;;5044012;28;20044;-72
2021/07/11 04:55:17;;;;;;;2.65;1.50;;;21.60;96.70;;;;;;5042670;28;20037;-72
2021/07/11 04:57:45;;;;;;;3.40;1.70;;;21.80;96.70;;;;;;5042263;28;20076;-72
2021/07/11 05:00:15;;;;;;;1.90;1.40;;;21.90;96.70;;;;;;5060482;28;20041;-71
2021/07/11 05:02:43;;;;;;;3.88;1.75;;;21.80;96.70;;;;;;5060816;28;20226;-72
2021/07/11 05:05:13;;;;;;;3.65;1.70;;;21.80;96.70;;;;;;5062900;28;20325;-72
2021/07/11 05:07:41;;;;;;;3.33;1.95;;;21.90;96.70;;;;;;5045564;28;20715;-72
2021/07/11 05:10:11;;;;;;;3.40;1.50;;;21.90;96.70;;;;;;5059584;28;20462;-72
2021/07/11 05:12:39;;;;;;;2.65;1.45;;;21.90;96.70;;;;;;5043056;28;21302;-72
2021/07/11 05:15:08;;;;;;;3.28;1.27;;;21.90;96.70;;;;;;5057498;28;20084;-72
2021/07/11 05:17:37;;;;;;;3.10;1.63;;;21.80;96.70;;;;;;5047872;28;20045;-72
2021/07/11 05:20:07;;;;;;;3.97;1.73;;;21.90;96.70;;;;;;5047052;28;20098;-71
2021/07/11 05:22:37;;;;;;;1.90;1.10;;;22.10;96.70;;;;;;5056862;28;20043;-72
2021/07/11 05:25:07;;;;;;;3.05;1.50;;;22.10;96.70;;;;;;5060617;28;20498;-72
2021/07/11 05:27:35;;;;;;;3.30;1.85;;;22.10;96.70;;;;;;5059467;28;20082;-72
2021/07/11 05:30:05;;;;;;;4.15;1.40;;;22.20;96.70;;;;;;5045994;28;20126;-72
2021/07/11 05:32:33;;;;;;;3.00;1.30;;;22.30;96.70;;;;;;5027251;28;20040;-71
2021/07/11 05:35:02;;;;;;;3.20;1.50;;;22.10;96.70;;;;;;5046625;28;20045;-72
2021/07/11 05:37:30;;;;;;;3.92;1.75;;;22.10;96.70;;;;;;5062606;28;20143;-71
2021/07/11 05:40:00;;;;;;;3.63;1.73;;;22.30;96.70;;;;;;5063986;28;20063;-71
2021/07/11 05:42:29;;;;;;;4.13;1.58;;;22.40;96.70;;;;;;5043828;28;21801;-71
2021/07/11 05:44:57;;;;;;;4.60;2.10;;;22.50;96.70;;;;;;5062466;28;20491;-73
2021/07/11 05:47:25;;;;;;;4.43;2.00;;;22.50;96.70;;;;;;5039678;28;20110;-73
2021/07/11 05:49:53;;;;;;;6.05;2.00;;;22.60;96.70;;;;;;5043449;28;20064;-73
2021/07/11 05:52:22;;;;;;;3.17;1.75;;;22.60;96.70;;;;;;5058795;28;20440;-73
2021/07/11 05:54:50;;;;;;;3.70;1.85;;;22.70;96.70;;;;;;5059115;28;20091;-73
2021/07/11 05:57:20;;;;;;;3.65;2.13;;;22.70;96.70;;;;;;5055202;28;20051;-73
2021/07/11 05:59:48;;;;;;;6.25;2.05;;;22.80;96.70;;;;;;5058234;28;20032;-73
2021/07/11 06:02:16;;;;;;;4.53;2.55;;;23.00;96.70;;;;;;5060969;28;20048;-73
2021/07/11 06:04:45;;;;;;;5.60;2.40;;;23.10;96.70;;;;;;5061397;28;20039;-73
2021/07/11 06:07:13;;;;;;;6.70;2.63;;;23.20;96.70;;;;;;5061253;28;20055;-73
2021/07/11 06:09:41;;;;;;;10.52;3.92;;;23.20;96.70;;;;;;5062672;28;20064;-73
2021/07/11 06:12:10;;;;;;;8.07;4.90;;;23.30;96.70;;;;;;5059504;28;20041;-73
2021/07/11 06:14:40;;;;;;;11.15;4.57;;;23.40;96.70;;;;;;5037047;28;20114;-73
2021/07/11 06:17:08;;;;;;;9.68;4.78;;;23.40;96.70;;;;;;5058238;28;20094;-73
2021/07/11 06:19:36;;;;;;;6.60;4.30;;;23.50;96.70;;;;;;5056143;28;20451;-73
2021/07/11 06:22:05;;;;;;;7.47;4.22;;;23.60;96.70;;;;;;5058894;28;20122;-74
2021/07/11 06:24:33;;;;;;;4.65;2.60;;;23.70;96.70;;;;;;5061361;28;20547;-73
2021/07/11 06:27:02;;;;;;;6.50;2.88;;;23.70;96.70;;;;;;5060848;28;20044;-73
2021/07/11 06:29:30;;;;;;;3.92;2.20;;;23.60;96.70;;;;;;5062683;28;20047;-73
2021/07/11 06:32:00;;;;;;;5.35;2.33;;;23.60;96.70;;;;;;5043664;28;20763;-73
2021/07/11 06:34:29;;;;;;;5.28;1.85;;;23.50;96.70;;;;;;5056436;28;20044;-73
2021/07/11 06:36:57;;;;;;;3.33;1.63;;;23.50;96.70;;;;;;5062220;28;20045;-73
2021/07/11 06:39:25;;;;;;;4.50;2.20;;;23.50;96.70;;;;;;5060419;28;20523;-73
2021/07/11 06:41:53;;;;;;;4.85;2.05;;;23.60;96.70;;;;;;5058577;28;20131;-73
2021/07/11 06:44:21;;;;;;;6.35;1.98;;;23.70;96.70;;;;;;5060208;28;20041;-73
2021/07/11 06:46:50;;;;;;;5.60;1.75;;;23.80;96.70;;;;;;5061465;28;20448;-73
2021/07/11 06:49:20;;;;;;;5.95;1.88;;;23.60;96.70;;;;;;5044358;28;20102;-73
2021/07/11 06:51:50;;;;;;;4.47;2.05;;;23.70;96.70;;;;;;5062403;28;20051;-73
2021/07/11 06:54:19;;;;;;;7.28;2.13;;;23.90;96.70;;;;;;5059630;28;20067;-73
2021/07/11 06:56:47;;;;;;;5.43;1.60;;;23.90;96.70;;;;;;5061793;28;21159;-73
2021/07/11 06:59:15;;;;;;;4.47;1.65;;;24.00;96.70;;;;;;5060633;28;20624;-73
2021/07/11 07:01:43;;;;;;;4.57;1.83;;;24.00;96.70;;;;;;5053779;28;20039;-73
2021/07/11 07:04:12;;;;;;;3.63;1.50;;;23.90;96.70;;;;;;5041611;28;20254;-73
2021/07/11 07:06:41;;;;;;;4.88;2.03;;;24.00;96.70;;;;;;5057482;28;20451;-74
2021/07/11 07:09:10;;;;;;;7.38;1.92;;;23.90;96.70;;;;;;5036549;28;20090;-73
2021/07/11 07:11:38;;;;;;;3.95;1.67;;;23.70;96.70;;;;;;5057673;28;20044;-73
2021/07/11 07:14:06;;;;;;;5.10;1.85;;;23.90;96.70;;;;;;5044308;28;20063;-73
2021/07/11 07:16:35;;;;;;;4.07;1.88;;;24.00;96.70;;;;;;5016503;28;20517;-73
2021/07/11 07:19:03;;;;;;;3.15;1.52;;;24.30;96.70;;;;;;5017484;28;20045;-73
2021/07/11 07:21:31;;;;;;;3.40;1.58;;;24.50;96.70;;;;;;5022337;28;20034;-73
2021/07/11 07:24:01;;;;;;;5.45;2.00;;;24.60;96.70;;;;;;5015509;28;20503;-73
2021/07/11 07:26:30;;;;;;;5.90;2.15;;;24.60;96.70;;;;;;5020217;28;20052;-76
2021/07/11 07:29:00;;;;;;;3.08;1.80;;;24.70;96.70;;;;;;5020057;28;20037;-76
2021/07/11 07:31:29;;;;;;;5.85;1.90;;;24.70;96.70;;;;;;5022038;28;20384;-76
2021/07/11 07:33:57;;;;;;;4.43;1.58;;;24.70;96.70;;;;;;5021596;28;20044;-74
2021/07/11 07:36:25;;;;;;;4.82;1.80;;;24.70;96.70;;;;;;5020354;28;20046;-76
2021/07/11 07:38:54;;;;;;;5.78;1.60;;;24.80;96.70;;;;;;5017245;28;20111;-77
2021/07/11 07:41:26;;;;;;;4.10;1.95;;;24.80;96.70;;;;;;5018921;28;20135;-76
2021/07/11 07:43:56;;;;;;;5.80;2.35;;;24.90;96.70;;;;;;5005746;28;20045;-76
2021/07/11 07:46:24;;;;;;;5.30;2.33;;;25.00;96.70;;;;;;5021807;28;20049;-76
2021/07/11 07:48:53;;;;;;;6.15;2.92;;;25.20;96.70;;;;;;5018002;28;20688;-77
2021/07/11 07:51:21;;;;;;;5.47;2.78;;;25.30;96.70;;;;;;5019289;28;20068;-76
2021/07/11 07:53:50;;;;;;;5.15;2.47;;;25.40;96.70;;;;;;5017750;28;20106;-77
2021/07/11 07:56:18;;;;;;;5.35;2.65;;;25.40;96.70;;;;;;5017677;28;20052;-76
2021/07/11 07:58:48;;;;;;;6.00;2.85;;;25.30;96.70;;;;;;5021167;28;20073;-74
2021/07/11 08:01:16;;;;;;;5.68;2.97;;;25.20;96.70;;;;;;5015601;28;20053;-77
2021/07/11 08:03:44;;;;;;;3.83;2.50;;;25.20;96.70;;;;;;5019283;28;20657;-76
2021/07/11 08:06:12;;;;;;;6.75;3.05;;;25.20;96.70;;;;;;5002676;28;20107;-75
2021/07/11 08:08:40;;;;;;;6.10;2.55;;;25.30;96.70;;;;;;5018462;28;20069;-80
2021/07/11 08:11:09;;;;;;;3.47;2.30;;;25.50;96.70;;;;;;5017781;28;20046;-73
2021/07/11 08:13:38;;;;;;;6.10;2.22;;;25.60;96.70;;;;;;5019919;28;20119;-73
2021/07/11 08:16:08;;;;;;;4.18;2.00;;;25.60;96.70;;;;;;5037741;28;20053;-76
2021/07/11 08:18:36;;;;;;;8.07;2.15;;;25.60;96.70;;;;;;5027780;28;20498;-75
2021/07/11 08:21:04;;;;;;;4.82;1.83;;;25.70;96.70;;;;;;5038923;28;20033;-74
2021/07/11 08:23:33;;;;;;;5.13;2.30;;;25.90;96.70;;;;;;5040272;28;20053;-72
2021/07/11 08:26:01;;;;;;;2.95;1.70;;;26.00;96.70;;;;;;5037754;28;20099;-74
2021/07/11 08:28:29;;;;;;;4.03;1.70;;;26.10;96.70;;;;;;5044517;28;20036;-75
2021/07/11 08:30:57;;;;;;;5.65;1.70;;;26.10;96.70;;;;;;5042093;28;21012;-73
2021/07/11 08:33:26;;;;;;;4.72;2.08;;;26.10;96.70;;;;;;5043419;28;20036;-74
2021/07/11 08:35:54;;;;;;;4.07;1.92;;;26.10;96.70;;;;;;5037941;28;20495;-73
2021/07/11 08:38:22;;;;;;;4.05;2.03;;;26.30;96.70;;;;;;5044571;28;20043;-75
2021/07/11 08:40:50;;;;;;;2.97;1.65;;;26.40;96.70;;;;;;5041563;28;20124;-78
2021/07/11 08:43:20;;;;;;;4.88;1.70;;;26.50;96.70;;;;;;5043683;28;20449;-79
2021/07/11 08:45:49;;;;;;;2.05;1.60;;;26.60;96.70;;;;;;5042720;28;20091;-77
2021/07/11 08:48:18;;;;;;;5.50;1.90;;;26.60;96.70;;;;;;5043714;28;20488;-78
2021/07/11 08:50:48;;;;;;;4.90;1.80;;;26.60;96.70;;;;;;5041485;28;20043;-75
2021/07/11 08:53:17;;;;;;;6.38;1.70;;;26.60;96.70;;;;;;5043795;28;20045;-72
2021/07/11 08:55:45;;;;;;;4.28;1.77;;;26.50;96.70;;;;;;5023396;28;20156;-73
2021/07/11 08:58:14;;;;;;;4.15;1.75;;;26.40;96.70;;;;;;5041416;28;20040;-74
2021/07/11 09:00:43;;;;;;;6.40;2.10;;;26.40;96.70;;;;;;5042315;28;20036;-74
2021/07/11 09:03:13;;;;;;;3.65;1.60;;;26.40;96.70;;;;;;5040815;28;20091;-73
2021/07/11 09:05:42;;;;;;;3.50;1.77;;;26.60;96.70;;;;;;5040693;28;20056;-72
2021/07/11 09:08:15;;;;;;;4.13;2.10;;;26.90;96.70;;;;;;5039863;28;20205;-73
2021/07/11 09:10:50;;;;;;;5.97;1.63;;;27.10;96.70;;;;;;5038965;28;20512;-72
2021/07/11 09:13:19;;;;;;;3.25;1.65;;;27.10;96.70;;;;;;5036380;28;20048;-73
2021/07/11 09:15:52;;;;;;;3.20;1.80;;;27.00;96.70;;;;;;5042844;28;20056;-72
2021/07/11 09:18:26;;;;;;;3.08;1.40;;;27.00;96.70;;;;;;5033930;28;20510;-73
2021/07/11 09:20:56;;;;;;;4.75;2.10;;;26.90;96.70;;;;;;5037961;28;20574;-72
2021/07/11 09:23:26;;;;;;;4.68;1.90;;;26.90;96.70;;;;;;5037476;28;20047;-73
2021/07/11 09:26:05;;;;;;;6.78;2.13;;;26.90;96.70;;;;;;5041982;28;20152;-74
2021/07/11 09:28:35;;;;;;;5.97;1.95;;;26.80;96.70;;;;;;5040980;28;20060;-73
2021/07/11 09:31:09;;;;;;;4.70;1.50;;;26.80;96.70;;;;;;5038836;28;20509;-73
2021/07/11 09:33:41;;;;;;;7.80;2.65;;;26.90;96.70;;;;;;5043333;28;21105;-73
2021/07/11 09:36:15;;;;;;;7.22;2.20;;;27.00;96.70;;;;;;5030802;28;20045;-73
2021/07/11 09:38:48;;;;;;;3.67;1.55;;;27.10;96.70;;;;;;5039463;28;20041;-72
2021/07/11 09:41:20;;;;;;;4.70;1.90;;;27.10;96.70;;;;;;5041540;28;20538;-74
2021/07/11 09:43:49;;;;;;;7.60;2.65;;;27.10;96.70;;;;;;5042061;28;20041;-74
2021/07/11 09:46:18;;;;;;;4.32;1.98;;;27.00;96.70;;;;;;5038664;28;20049;-73
2021/07/11 09:48:47;;;;;;;3.92;1.77;;;27.30;96.70;;;;;;5040237;28;20071;-74
2021/07/11 09:51:16;;;;;;;3.78;1.77;;;27.60;96.70;;;;;;5037140;28;20037;-73
2021/07/11 09:53:45;;;;;;;4.97;2.30;;;27.70;96.70;;;;;;5044080;28;20447;-74
2021/07/11 09:56:32;;;;;;;3.17;1.83;;;27.50;96.70;;;;;;5038099;28;20112;-74
2021/07/11 09:59:01;;;;;;;3.08;1.95;;;27.50;96.70;;;;;;5041104;28;20539;-74
2021/07/11 10:01:30;;;;;;;5.13;1.80;;;27.40;96.70;;;;;;5041827;28;20040;-74
2021/07/11 10:03:59;;;;;;;4.40;2.17;;;27.60;96.70;;;;;;5040045;28;20148;-75
2021/07/11 10:06:27;;;;;;;4.88;2.10;;;27.90;96.70;;;;;;5037435;28;20056;-75
2021/07/11 10:08:56;;;;;;;4.47;2.00;;;28.00;96.70;;;;;;5040092;28;20079;-74
2021/07/11 10:11:24;;;;;;;5.50;1.77;;;28.00;96.70;;;;;;5041061;28;20047;-75
2021/07/11 10:13:54;;;;;;;5.30;1.60;;;27.80;96.70;;;;;;5039128;28;20658;-75
2021/07/11 10:16:24;;;;;;;5.63;2.05;;;27.70;96.70;;;;;;5038733;28;20514;-75
2021/07/11 10:18:55;;;;;;;3.45;1.83;;;27.70;96.70;;;;;;5040135;28;20063;-74
2021/07/11 10:21:28;;;;;;;4.25;1.77;;;27.60;96.70;;;;;;5041634;28;20418;-75
2021/07/11 10:23:57;;;;;;;4.13;1.50;;;27.60;96.70;;;;;;5020286;28;20036;-75
2021/07/11 10:26:36;;;;;;;8.45;1.83;;;27.60;96.70;;;;;;5040332;28;20051;-74
2021/07/11 10:29:12;;;;;;;5.07;1.83;;;27.50;96.70;;;;;;5035538;28;20132;-73
2021/07/11 10:31:43;;;;;;;4.25;1.90;;;27.90;96.70;;;;;;5033529;28;20040;-74
2021/07/11 10:34:13;;;;;;;5.75;2.17;;;28.20;96.70;;;;;;5037238;28;20063;-73
2021/07/11 10:36:42;;;;;;;4.95;1.88;;;28.10;96.70;;;;;;5030959;28;20034;-74
2021/07/11 10:39:14;;;;;;;5.13;1.50;;;28.20;96.70;;;;;;5032154;28;20706;-74
2021/07/11 10:41:48;;;;;;;2.70;1.67;;;28.50;96.70;;;;;;5041019;28;20040;-74
2021/07/11 10:44:22;;;;;;;3.17;1.80;;;28.50;96.70;;;;;;5036708;28;20596;-74
2021/07/11 10:46:53;;;;;;;4.93;1.70;;;28.40;96.70;;;;;;5036565;28;20127;-75
2021/07/11 10:49:23;;;;;;;5.07;1.60;;;28.50;96.30;;;;;;5037147;28;20045;-81
2021/07/11 10:51:53;;;;;;;4.90;1.92;;;28.50;96.70;;;;;;5020123;28;20048;-76
2021/07/11 10:54:24;;;;;;;3.50;1.60;;;28.50;96.40;;;;;;5034711;28;20261;-75
2021/07/11 10:56:53;;;;;;;5.05;1.70;;;28.40;96.70;;;;;;5017900;28;20037;-75
2021/07/11 10:59:30;;;;;;;3.50;1.98;;;28.20;96.70;;;;;;5035874;28;20396;-75
2021/07/11 11:02:00;;;;;;;3.35;1.48;;;28.30;96.70;;;;;;5035587;28;20037;-75
2021/07/11 11:04:28;;;;;;;5.35;1.75;;;28.40;96.70;;;;;;5028961;28;20044;-74
2021/07/11 11:07:13;;;;;;;4.93;1.60;;;28.50;96.40;;;;;;5038172;28;20041;-72
2021/07/11 11:09:46;;;;;;;3.72;1.63;;;28.80;94.30;;;;;;5038324;28;20060;-76
2021/07/11 11:12:24;;;;;;;4.00;1.88;;;28.80;95.30;;;;;;5037036;28;20045;-74
2021/07/11 11:14:56;;;;;;;3.25;1.67;;;28.60;96.40;;;;;;5045453;28;20048;-75
2021/07/11 11:17:33;;;;;;;4.55;1.70;;;28.60;96.10;;;;;;5044459;28;20530;-75
2021/07/11 11:20:06;;;;;;;4.03;1.67;;;29.00;95.70;;;;;;5056236;28;20383;-75
2021/07/11 11:22:35;;;;;;;7.28;1.90;;;29.30;94.40;;;;;;5038284;28;20445;-75
2021/07/11 11:25:03;;;;;;;4.03;2.13;;;28.90;95.10;;;;;;5056790;28;20042;-75
2021/07/11 11:27:35;;;;;;;4.10;1.75;;;28.60;96.70;;;;;;5039259;28;20049;-73
2021/07/11 11:30:16;;;;;;;4.20;1.83;;;28.70;96.70;;;;;;5042162;28;20080;-73
2021/07/11 11:32:49;;;;;;;4.00;1.83;;;28.60;96.70;;;;;;5059354;28;20051;-72
2021/07/11 11:35:23;;;;;;;4.22;1.95;;;28.30;96.70;;;;;;5058098;28;20509;-80
2021/07/11 11:37:53;;;;;;;4.25;1.73;;;28.50;96.70;;;;;;5058889;28;20132;-72
2021/07/11 11:40:23;;;;;;;4.93;1.70;;;28.80;96.70;;;;;;5043730;28;20567;-73
2021/07/11 11:42:54;;;;;;;3.65;1.73;;;29.10;96.70;;;;;;5057559;28;20090;-73
2021/07/11 11:45:28;;;;;;;4.78;1.75;;;29.00;96.70;;;;;;5042568;28;20477;-73
2021/07/11 11:48:01;;;;;;;4.90;2.13;;;29.00;96.00;;;;;;5057014;28;20048;-74
2021/07/11 11:50:31;;;;;;;2.67;1.63;;;29.00;96.50;;;;;;5051037;28;20058;-73
2021/07/11 11:53:08;;;;;;;3.65;1.95;;;28.80;96.60;;;;;;5042950;28;20031;-73
2021/07/11 11:55:36;;;;;;;;;;;29.10;95.80;;;;;;5036714;28;20179;-73
2021/07/11 11:58:05;;;;;;;3.97;1.75;;;29.40;92.40;;;;;;5028160;28;19931;-74
2021/07/11 12:00:35;;;;;;;4.28;1.60;;;29.50;91.70;;;;;;5043838;28;20404;-73
2021/07/11 12:03:06;;;;;;;2.80;1.65;;;29.60;92.40;;;;;;5042514;28;20040;-73
2021/07/11 12:05:35;;;;;;;3.63;1.50;;;29.50;91.20;;;;;;5025359;28;20044;-73
2021/07/11 12:08:19;;;;;;;4.32;1.58;;;29.50;91.30;;;;;;5061231;28;20056;-73
2021/07/11 12:10:48;;;;;;;2.65;1.40;;;29.50;90.80;;;;;;5043990;28;20510;-73
2021/07/11 12:13:24;;;;;;;2.92;1.55;;;29.50;91.10;;;;;;5064148;28;20048;-73
2021/07/11 12:16:07;;;;;;;3.45;1.70;;;29.40;92.30;;;;;;5037749;28;20410;-73
2021/07/11 12:18:47;;;;;;;4.30;1.50;;;29.80;92.80;;;;;;5037751;28;20550;-73
2021/07/11 12:21:20;;;;;;;5.55;1.60;;;29.40;92.40;;;;;;5038728;28;20048;-73
2021/07/11 12:24:02;;;;;;;3.53;1.63;;;29.60;92.90;;;;;;5043377;28;20052;-74
2021/07/11 12:26:32;;;;;;;2.78;1.50;;;29.50;92.10;;;;;;5042567;28;20111;-73
2021/07/11 12:29:01;;;;;;;5.57;1.85;;;29.60;92.30;;;;;;5041273;28;20048;-73
2021/07/11 12:31:33;;;;;;;4.30;1.50;;;29.40;92.80;;;;;;5040803;28;20045;-74
2021/07/11 12:34:05;;;;;;;3.63;1.30;;;29.20;92.20;;;;;;5035485;28;20087;-72
2021/07/11 12:36:35;;;;;;;2.28;1.35;;;29.30;90.70;;;;;;5037586;28;20041;-72
2021/07/11 12:39:15;;;;;;;4.35;1.60;;;29.50;91.10;;;;;;5035697;28;20139;-72
2021/07/11 12:41:48;;;;;;;4.35;1.70;;;29.80;91.60;;;;;;5038534;28;20265;-73
2021/07/11 12:44:18;;;;;;;5.80;1.95;;;29.80;91.70;;;;;;5040075;28;20055;-71
2021/07/11 12:46:48;;;;;;;5.47;2.05;;;29.90;91.20;;;;;;5043296;28;20548;-71
2021/07/11 12:49:17;;;;;;;3.15;1.67;;;29.80;90.40;;;;;;5037250;28;20662;-72
2021/07/11 12:51:53;;;;;;;3.83;1.63;;;29.80;90.90;;;;;;5047912;28;20045;-71
2021/07/11 12:54:23;;;;;;;3.85;1.50;;;29.90;91.40;;;;;;5036877;28;20132;-74
2021/07/11 12:56:53;;;;;;;3.95;1.67;;;29.70;90.00;;;;;;5038655;28;20068;-73
2021/07/11 12:59:32;;;;;;;3.63;1.60;;;29.90;90.90;;;;;;5032531;28;20557;-72
2021/07/11 13:02:06;;;;;;;3.50;1.83;;;30.00;91.20;;;;;;5038824;28;20041;-74
2021/07/11 13:04:36;;;;;;;3.53;1.80;;;30.00;91.90;;;;;;5041447;28;20048;-72
2021/07/11 13:07:07;;;;;;;2.53;1.52;;;30.20;92.10;;;;;;5041222;28;20041;-74